map of TMP home
TMP - Airport
Location
City:  Tampere, Pirkanmaa (Birkaland), Finland
Name:Pirkkala
ICAO:EFTP
IATA:TMP

Details
Type:Airport (Aerodrome, Airfield)
Latitude:6124'55"N (61.415278)
Longitude:2335'16"E (23.587778)
Elevation:390 ft (119 m)
Variation:8.93E (WMM2015 magnetic declination)
0.16 annual change
Runways:1
Longest:8858 × 148 ft (2700 × 45 m), paved

Time
Time Zone:UTC+2 (DST+3)
Local Time:

Weather
METAR:EFTP 190620Z AUTO VRB01KT 9999 SCT026 BKN030 M16/M18 Q1002
TAF:EFTP 190538Z 1906/2006 27003KT 9999 FEW020
BECMG 1914/1916 4000 -SN
TEMPO 1916/1919 1400 SN VV009
TEMPO 1919/1923 9999 NSW BKN008
BECMG 1923/2001 33010KT 9999 NSW
TEMPO 2003/2006 BKN011

Related Locations
Nearby:
Farthest:NZTB: 11101 mi / 17865 km
Terra Nova Bay [Mario Zucchelli Station], AQ

Find:

   beyond  
but within

Other Information
Maps:
NOTAMs:
Links:
Sources:

  
  • flag of Finland
  

Sectional Chart

Flight Planning
at skyvector.com

Satellite Image

Google Maps Satellite view

 

Copyright © 2004-2019 Karl L. Swartz. All rights reserved.
The Great Circle Mapper name and logo are trademarks of the Great Circle Mapper.
All other trademarks mentioned herein belong to their respective owners.
Please see credits for attibutions and further copyright information.

  Follow gcmap on Facebook Follow gcmap on Twitter Follow gcmap on Google+ GCmap on LinkedIn

hCard Microformat

Geo Microformat